createdAt,value
2022-08-25T00:00:48.423Z,31.90
2022-08-25T00:01:48.408Z,31.90
2022-08-25T00:02:55.127Z,35.45
2022-08-25T00:03:49.397Z,36.90
2022-08-25T00:04:53.917Z,37.54
2022-08-25T00:05:49.483Z,37.06
2022-08-25T00:06:48.373Z,41.41
2022-08-25T00:07:48.390Z,41.25
2022-08-25T00:08:48.359Z,37.54
2022-08-25T00:09:48.378Z,36.74
2022-08-25T00:11:02.889Z,36.90
2022-08-25T00:11:49.350Z,35.61
2022-08-25T00:12:48.328Z,42.22
2022-08-25T00:13:48.318Z,40.44
2022-08-25T00:14:48.345Z,39.32
2022-08-25T00:15:48.337Z,34.64
2022-08-25T00:16:48.297Z,38.51
2022-08-25T00:17:48.308Z,36.58
2022-08-25T00:18:48.277Z,35.45
2022-08-25T00:19:48.298Z,33.68
2022-08-25T00:20:49.177Z,31.10
2022-08-25T00:21:48.258Z,34.48
2022-08-25T00:22:48.251Z,33.68
2022-08-25T00:23:48.246Z,36.74
2022-08-25T00:24:48.266Z,31.74
2022-08-25T00:25:48.227Z,31.58
2022-08-25T00:26:48.224Z,36.74
2022-08-25T00:27:48.216Z,33.03
2022-08-25T00:28:48.204Z,31.74
2022-08-25T00:29:48.225Z,29.97
2022-08-25T00:30:48.283Z,30.13
2022-08-25T00:31:48.179Z,34.16
2022-08-25T00:32:54.986Z,37.22
2022-08-25T00:33:49.165Z,39.96
2022-08-25T00:34:48.205Z,44.63
2022-08-25T00:35:48.145Z,44.15
2022-08-25T00:36:49.149Z,34.64
2022-08-25T00:37:48.145Z,33.03
2022-08-25T00:38:48.131Z,37.71
2022-08-25T00:39:48.195Z,37.22
2022-08-25T00:40:48.115Z,31.42
2022-08-25T00:41:48.105Z,35.45
2022-08-25T00:42:48.099Z,35.93
2022-08-25T00:43:48.090Z,35.29
2022-08-25T00:44:48.096Z,32.07
2022-08-25T00:45:49.146Z,31.74
2022-08-25T00:46:48.078Z,33.68
2022-08-25T00:47:48.071Z,40.44
2022-08-25T00:48:48.048Z,38.03
2022-08-25T00:49:48.074Z,35.13
2022-08-25T00:50:48.033Z,31.74
2022-08-25T00:51:48.028Z,30.62
2022-08-25T00:52:48.032Z,31.10
2022-08-25T00:53:48.012Z,34.80
2022-08-25T00:54:48.052Z,44.96
2022-08-25T00:55:48.015Z,36.58
2022-08-25T00:56:47.993Z,34.48
2022-08-25T00:57:47.986Z,37.38
2022-08-25T00:58:47.984Z,37.22
2022-08-25T00:59:47.999Z,38.99
2022-08-25T01:00:47.965Z,36.25
2022-08-25T01:01:48.029Z,34.97
2022-08-25T01:02:48.027Z,35.13
2022-08-25T01:03:47.943Z,35.29
2022-08-25T01:04:49.217Z,46.57
2022-08-25T01:05:47.950Z,38.83
2022-08-25T01:06:47.922Z,44.15
2022-08-25T01:07:47.934Z,41.25
2022-08-25T01:08:47.908Z,39.96
2022-08-25T01:09:47.933Z,37.87
2022-08-25T01:10:47.889Z,40.44
2022-08-25T01:11:47.889Z,34.80
2022-08-25T01:12:47.873Z,37.87
2022-08-25T01:13:47.864Z,37.22
2022-08-25T01:14:47.880Z,35.77
2022-08-25T01:15:47.933Z,32.39
2022-08-25T01:16:51.210Z,30.62
2022-08-25T01:17:48.831Z,37.38
2022-08-25T01:18:47.822Z,34.00
2022-08-25T01:19:47.843Z,33.35
2022-08-25T01:20:47.810Z,35.45
2022-08-25T01:21:47.803Z,35.61
2022-08-25T01:22:48.251Z,35.61
2022-08-25T01:23:48.788Z,37.54
2022-08-25T01:24:47.799Z,35.13
2022-08-25T01:25:47.776Z,34.80
2022-08-25T01:26:47.765Z,35.13
2022-08-25T01:27:47.759Z,31.58
2022-08-25T01:28:47.755Z,32.55
2022-08-25T01:29:47.763Z,37.38
2022-08-25T01:30:47.780Z,41.57
2022-08-25T01:31:47.728Z,43.34
2022-08-25T01:32:47.722Z,38.35
2022-08-25T01:33:47.710Z,39.80
2022-08-25T01:34:47.731Z,35.45
2022-08-25T01:35:47.699Z,34.97
2022-08-25T01:36:47.688Z,34.16
2022-08-25T01:37:47.681Z,37.87
2022-08-25T01:38:47.680Z,43.34
2022-08-25T01:39:47.749Z,38.51
2022-08-25T01:40:47.655Z,38.35
2022-08-25T01:41:47.647Z,34.16
2022-08-25T01:42:47.643Z,34.00
2022-08-25T01:43:47.634Z,37.38
2022-08-25T01:44:47.649Z,37.06
2022-08-25T01:45:47.731Z,36.74
2022-08-25T01:46:47.609Z,35.13
2022-08-25T01:47:47.601Z,32.87
2022-08-25T01:48:47.605Z,36.42
2022-08-25T01:49:47.612Z,35.61
2022-08-25T01:50:47.579Z,36.58
2022-08-25T01:51:47.570Z,37.87
2022-08-25T01:53:20.017Z,36.09
2022-08-25T01:53:47.549Z,40.28
2022-08-25T01:54:47.575Z,40.61
2022-08-25T01:55:47.547Z,36.25
2022-08-25T01:56:47.539Z,31.90
2022-08-25T01:57:47.526Z,33.84
2022-08-25T01:58:47.520Z,41.73
2022-08-25T01:59:47.552Z,36.74
2022-08-25T02:00:47.505Z,33.35
2022-08-25T02:01:47.551Z,34.48
2022-08-25T02:02:52.309Z,36.74
2022-08-25T02:03:48.492Z,38.35
2022-08-25T02:04:47.504Z,38.83
2022-08-25T02:05:48.051Z,39.96
2022-08-25T02:06:47.457Z,35.45
2022-08-25T02:07:47.453Z,37.71
2022-08-25T02:08:47.443Z,40.61
2022-08-25T02:09:47.462Z,39.96
2022-08-25T02:10:47.434Z,42.86
2022-08-25T02:11:47.421Z,41.89
2022-08-25T02:12:47.417Z,40.61
2022-08-25T02:13:47.410Z,34.32
2022-08-25T02:14:47.427Z,36.25
2022-08-25T02:15:47.392Z,36.74
2022-08-25T02:16:47.568Z,38.83
2022-08-25T02:17:47.380Z,37.22
2022-08-25T02:18:47.372Z,34.48
2022-08-25T02:19:47.391Z,33.84
2022-08-25T02:20:47.354Z,34.16
2022-08-25T02:21:47.353Z,33.68
2022-08-25T02:22:51.131Z,34.32
2022-08-25T02:23:48.332Z,38.83
2022-08-25T02:24:47.348Z,46.08
2022-08-25T02:25:47.319Z,39.80
2022-08-25T02:26:47.317Z,38.99
2022-08-25T02:27:47.301Z,36.58
2022-08-25T02:28:47.293Z,38.03
2022-08-25T02:29:47.322Z,44.47
2022-08-25T02:30:47.326Z,41.57
2022-08-25T02:31:47.288Z,37.38
2022-08-25T02:32:47.265Z,36.25
2022-08-25T02:33:47.259Z,45.28
2022-08-25T02:34:47.272Z,43.51
2022-08-25T02:35:47.247Z,40.93
2022-08-25T02:36:47.233Z,42.70
2022-08-25T02:37:47.229Z,46.08
2022-08-25T02:38:47.219Z,39.96
2022-08-25T02:39:47.287Z,36.74
2022-08-25T02:40:47.206Z,35.45
2022-08-25T02:41:47.201Z,37.71
2022-08-25T02:42:47.189Z,38.19
2022-08-25T02:43:47.183Z,40.61
2022-08-25T02:44:47.173Z,34.64
2022-08-25T02:45:47.227Z,37.38
2022-08-25T02:46:47.162Z,37.22
2022-08-25T02:47:47.150Z,36.90
2022-08-25T02:48:47.146Z,38.03
2022-08-25T02:49:47.142Z,37.38
2022-08-25T02:50:47.157Z,37.54
2022-08-25T02:51:47.120Z,45.60
2022-08-25T02:52:47.114Z,43.02
2022-08-25T02:53:47.107Z,38.51
2022-08-25T02:54:47.099Z,41.41
2022-08-25T02:55:47.118Z,42.22
2022-08-25T02:56:47.083Z,39.96
2022-08-25T02:57:47.079Z,40.44
2022-08-25T02:58:47.064Z,44.15
2022-08-25T02:59:47.062Z,41.41
2022-08-25T03:00:47.104Z,47.21
2022-08-25T03:01:47.049Z,45.44
2022-08-25T03:02:47.033Z,41.57
2022-08-25T03:03:47.078Z,42.06
2022-08-25T03:04:47.070Z,44.15
2022-08-25T03:05:47.043Z,46.25
2022-08-25T03:06:47.010Z,45.28
2022-08-25T03:07:46.995Z,42.54
2022-08-25T03:08:46.997Z,41.09
2022-08-25T03:09:46.979Z,40.77
2022-08-25T03:10:47.414Z,50.27
2022-08-25T03:11:46.973Z,44.47
2022-08-25T03:12:46.954Z,41.25
2022-08-25T03:13:46.954Z,39.64
2022-08-25T03:14:46.976Z,38.83
2022-08-25T03:15:46.959Z,40.61
2022-08-25T03:16:47.114Z,46.08
2022-08-25T03:17:46.911Z,46.73
2022-08-25T03:18:46.911Z,44.15
2022-08-25T03:19:46.909Z,42.22
2022-08-25T03:20:46.921Z,42.54
2022-08-25T03:21:46.887Z,41.41
2022-08-25T03:22:46.875Z,43.34
2022-08-25T03:23:46.868Z,47.86
2022-08-25T03:24:46.862Z,39.96
2022-08-25T03:25:46.938Z,45.76
2022-08-25T03:26:46.920Z,43.34
2022-08-25T03:27:46.842Z,42.86
2022-08-25T03:28:46.845Z,38.99
2022-08-25T03:29:46.828Z,44.15
2022-08-25T03:30:46.850Z,43.51
2022-08-25T03:31:47.849Z,46.08
2022-08-25T03:32:46.806Z,44.15
2022-08-25T03:33:46.800Z,39.64
2022-08-25T03:34:46.792Z,40.93
2022-08-25T03:35:46.809Z,39.96
2022-08-25T03:36:46.788Z,41.89
2022-08-25T03:37:46.770Z,49.63
2022-08-25T03:38:46.762Z,52.21
2022-08-25T03:39:46.832Z,41.09
2022-08-25T03:40:46.782Z,42.06
2022-08-25T03:41:46.741Z,50.43
2022-08-25T03:42:46.743Z,49.31
2022-08-25T03:43:48.283Z,43.02
2022-08-25T03:44:46.725Z,41.57
2022-08-25T03:45:46.771Z,45.12
2022-08-25T03:46:46.702Z,44.79
2022-08-25T03:47:46.693Z,46.73
2022-08-25T03:48:46.681Z,50.27
2022-08-25T03:49:46.676Z,56.72
2022-08-25T03:50:50.560Z,47.37
2022-08-25T03:51:46.665Z,51.56
2022-08-25T03:52:46.654Z,42.54
2022-08-25T03:53:46.649Z,42.38
2022-08-25T03:54:46.637Z,48.66
2022-08-25T03:55:46.666Z,46.89
2022-08-25T03:56:46.628Z,44.96
2022-08-25T03:57:46.621Z,48.66
2022-08-25T03:58:46.608Z,43.02
2022-08-25T03:59:46.603Z,48.02
2022-08-25T04:00:46.661Z,41.89
2022-08-25T04:01:48.430Z,43.02
2022-08-25T04:02:46.637Z,43.51
2022-08-25T04:03:46.568Z,49.31
2022-08-25T04:04:46.564Z,44.79
2022-08-25T04:05:46.582Z,48.34
2022-08-25T04:06:46.547Z,45.92
2022-08-25T04:07:46.541Z,45.60
2022-08-25T04:08:46.551Z,48.82
2022-08-25T04:09:46.526Z,46.57
2022-08-25T04:10:46.525Z,48.18
2022-08-25T04:11:46.535Z,44.47
2022-08-25T04:12:46.508Z,41.89
2022-08-25T04:13:46.497Z,43.83
2022-08-25T04:14:46.490Z,47.37
2022-08-25T04:15:46.514Z,48.82
2022-08-25T04:16:46.533Z,48.34
2022-08-25T04:17:46.469Z,53.33
2022-08-25T04:18:46.474Z,50.92
2022-08-25T04:19:46.452Z,47.37
2022-08-25T04:20:46.959Z,44.15
2022-08-25T04:21:47.460Z,50.43
2022-08-25T04:22:46.432Z,49.79
2022-08-25T04:23:46.433Z,48.82
2022-08-25T04:24:46.418Z,51.72
2022-08-25T04:25:46.407Z,45.76
2022-08-25T04:26:46.416Z,47.05
2022-08-25T04:27:46.389Z,49.95
2022-08-25T04:28:46.380Z,50.60
2022-08-25T04:29:46.373Z,50.92
2022-08-25T04:30:50.238Z,46.08
2022-08-25T04:31:48.810Z,49.31
2022-08-25T04:32:46.347Z,48.02
2022-08-25T04:33:46.346Z,48.66
2022-08-25T04:34:46.335Z,47.37
2022-08-25T04:35:46.321Z,43.67
2022-08-25T04:36:46.341Z,50.11
2022-08-25T04:37:47.313Z,49.15
2022-08-25T04:38:46.300Z,51.72
2022-08-25T04:39:46.349Z,49.79
2022-08-25T04:40:46.293Z,48.50
2022-08-25T04:41:46.306Z,52.37
2022-08-25T04:42:48.077Z,45.12
2022-08-25T04:43:46.273Z,45.92
2022-08-25T04:44:46.255Z,51.56
2022-08-25T04:45:46.288Z,51.56
2022-08-25T04:46:46.266Z,51.56
2022-08-25T04:47:46.226Z,51.08
2022-08-25T04:48:46.217Z,47.21
2022-08-25T04:49:46.215Z,51.08
2022-08-25T04:50:46.202Z,48.50
2022-08-25T04:51:46.225Z,51.24
2022-08-25T04:52:46.189Z,51.40
2022-08-25T04:53:46.179Z,47.53
2022-08-25T04:54:46.188Z,45.92
2022-08-25T04:55:46.166Z,50.27
2022-08-25T04:56:46.194Z,48.66
2022-08-25T04:57:46.148Z,48.02
2022-08-25T04:58:46.139Z,44.79
2022-08-25T04:59:46.135Z,45.12
2022-08-25T05:00:46.155Z,47.53
2022-08-25T05:01:46.144Z,51.40
2022-08-25T05:02:46.113Z,47.21
2022-08-25T05:03:46.123Z,48.66
2022-08-25T05:04:46.136Z,47.86
2022-08-25T05:05:46.090Z,48.66
2022-08-25T05:06:46.107Z,53.17
2022-08-25T05:07:46.075Z,51.40
2022-08-25T05:08:46.274Z,53.01
2022-08-25T05:09:46.053Z,48.82
2022-08-25T05:10:46.050Z,52.05
2022-08-25T05:11:46.078Z,53.50
2022-08-25T05:12:46.038Z,46.73
2022-08-25T05:13:51.157Z,47.05
2022-08-25T05:14:47.019Z,46.08
2022-08-25T05:15:46.013Z,50.43
2022-08-25T05:16:46.072Z,43.51
2022-08-25T05:17:46.006Z,44.79
2022-08-25T05:18:45.992Z,48.98
2022-08-25T05:19:45.984Z,53.17
2022-08-25T05:20:45.981Z,49.31
2022-08-25T05:21:45.996Z,48.34
2022-08-25T05:22:45.958Z,49.79
2022-08-25T05:23:45.951Z,48.34
2022-08-25T05:24:45.941Z,44.63
2022-08-25T05:25:45.937Z,48.34
2022-08-25T05:26:45.973Z,47.86
2022-08-25T05:27:45.920Z,50.27
2022-08-25T05:28:45.914Z,52.69
2022-08-25T05:29:45.905Z,50.92
2022-08-25T05:30:45.891Z,52.05
2022-08-25T05:31:50.281Z,47.86
2022-08-25T05:32:46.893Z,47.70
2022-08-25T05:33:45.894Z,49.15
2022-08-25T05:34:45.868Z,49.79
2022-08-25T05:35:45.866Z,48.82
2022-08-25T05:36:45.862Z,48.82
2022-08-25T05:37:45.869Z,49.15
2022-08-25T05:38:45.834Z,52.05
2022-08-25T05:39:45.859Z,49.63
2022-08-25T05:40:45.821Z,47.21
2022-08-25T05:41:45.810Z,46.89
2022-08-25T05:42:45.833Z,49.15
2022-08-25T05:43:45.793Z,48.34
2022-08-25T05:44:45.796Z,52.21
2022-08-25T05:45:45.796Z,48.18
2022-08-25T05:46:45.774Z,47.37
2022-08-25T05:47:45.796Z,50.27
2022-08-25T05:48:45.754Z,51.08
2022-08-25T05:49:45.748Z,47.70
2022-08-25T05:50:45.741Z,50.27
2022-08-25T05:51:45.733Z,49.79
2022-08-25T05:52:45.748Z,50.27
2022-08-25T05:53:45.714Z,51.08
2022-08-25T05:54:45.733Z,47.37
2022-08-25T05:55:45.709Z,47.05
2022-08-25T05:56:45.692Z,48.34
2022-08-25T05:57:45.718Z,43.99
2022-08-25T05:58:45.680Z,52.21
2022-08-25T05:59:45.670Z,47.86
2022-08-25T06:00:45.692Z,52.05
2022-08-25T06:01:45.650Z,43.83
2022-08-25T06:02:45.671Z,48.34
2022-08-25T06:03:45.648Z,45.76
2022-08-25T06:04:45.629Z,51.40
2022-08-25T06:05:45.624Z,47.05
2022-08-25T06:06:45.613Z,49.79
2022-08-25T06:07:45.631Z,42.54
2022-08-25T06:08:45.599Z,43.67
2022-08-25T06:09:45.599Z,44.63
2022-08-25T06:10:45.588Z,44.31
2022-08-25T06:11:45.585Z,49.47
2022-08-25T06:12:45.593Z,47.70
2022-08-25T06:13:45.567Z,42.06
2022-08-25T06:14:45.563Z,48.02
2022-08-25T06:15:45.546Z,44.47
2022-08-25T06:16:45.571Z,45.60
2022-08-25T06:17:45.561Z,47.53
2022-08-25T06:18:45.524Z,51.40
2022-08-25T06:19:45.517Z,50.27
2022-08-25T06:20:45.513Z,47.37
2022-08-25T06:21:45.506Z,47.86
2022-08-25T06:22:45.505Z,43.18
2022-08-25T06:23:46.484Z,43.34
2022-08-25T06:24:45.474Z,49.15
2022-08-25T06:25:45.469Z,49.31
2022-08-25T06:26:45.468Z,50.76
2022-08-25T06:27:45.480Z,49.15
2022-08-25T06:28:45.447Z,49.31
2022-08-25T06:29:45.441Z,48.18
2022-08-25T06:30:45.433Z,45.60
2022-08-25T06:31:45.467Z,44.31
2022-08-25T06:32:45.443Z,49.31
2022-08-25T06:33:45.408Z,48.34
2022-08-25T06:34:45.403Z,44.31
2022-08-25T06:35:45.400Z,41.41
2022-08-25T06:36:45.394Z,43.99
2022-08-25T06:37:45.411Z,46.08
2022-08-25T06:38:45.380Z,51.40
2022-08-25T06:39:45.408Z,46.57
2022-08-25T06:40:45.359Z,44.47
2022-08-25T06:41:45.351Z,41.73
2022-08-25T06:42:45.367Z,45.12
2022-08-25T06:43:49.812Z,49.31
2022-08-25T06:44:47.329Z,40.61
2022-08-25T06:45:45.321Z,46.57
2022-08-25T06:46:45.361Z,46.08
2022-08-25T06:47:45.586Z,48.18
2022-08-25T06:48:45.303Z,45.76
2022-08-25T06:49:45.289Z,46.57
2022-08-25T06:50:45.280Z,44.79
2022-08-25T06:51:45.275Z,48.18
2022-08-25T06:52:45.293Z,45.60
2022-08-25T06:53:45.264Z,48.34
2022-08-25T06:54:45.250Z,39.96
2022-08-25T06:55:45.247Z,47.70
2022-08-25T06:56:45.245Z,51.88
2022-08-25T06:57:45.255Z,41.09
2022-08-25T06:58:45.220Z,47.21
2022-08-25T06:59:45.213Z,46.57
2022-08-25T07:00:45.247Z,43.99
2022-08-25T07:01:45.291Z,47.05
2022-08-25T07:02:45.224Z,48.66
2022-08-25T07:03:45.190Z,45.12
2022-08-25T07:04:45.181Z,48.98
2022-08-25T07:05:45.206Z,38.83
2022-08-25T07:06:45.160Z,46.57
2022-08-25T07:07:45.184Z,47.86
2022-08-25T07:08:45.147Z,48.34
2022-08-25T07:09:45.136Z,41.73
2022-08-25T07:10:48.148Z,46.89
2022-08-25T07:11:45.127Z,50.27
2022-08-25T07:12:45.147Z,45.12
2022-08-25T07:13:45.108Z,49.31
2022-08-25T07:14:58.040Z,51.40
2022-08-25T07:15:47.098Z,50.60
2022-08-25T07:16:49.306Z,49.31
2022-08-25T07:17:47.103Z,46.73
2022-08-25T07:18:45.071Z,44.96
2022-08-25T07:19:45.049Z,39.80
2022-08-25T07:20:46.080Z,49.47
2022-08-25T07:21:45.044Z,39.96
2022-08-25T07:22:45.059Z,45.60
2022-08-25T07:23:45.031Z,47.86
2022-08-25T07:24:45.029Z,45.76
2022-08-25T07:25:45.016Z,47.37
2022-08-25T07:26:45.005Z,47.70
2022-08-25T07:27:45.029Z,51.08
2022-08-25T07:28:47.135Z,42.22
2022-08-25T07:29:44.988Z,39.80
2022-08-25T07:30:44.977Z,48.82
2022-08-25T07:31:46.150Z,49.15
2022-08-25T07:32:45.000Z,46.73
2022-08-25T07:33:44.953Z,46.57
2022-08-25T07:34:44.949Z,45.12
2022-08-25T07:35:45.938Z,54.46
2022-08-25T07:36:44.929Z,48.98
2022-08-25T07:37:49.145Z,45.12
2022-08-25T07:38:45.917Z,39.80
2022-08-25T07:39:44.956Z,44.96
2022-08-25T07:40:44.899Z,47.21
2022-08-25T07:41:45.883Z,50.27
2022-08-25T07:42:45.913Z,43.83
2022-08-25T07:43:44.877Z,45.60
2022-08-25T07:44:44.888Z,45.76
2022-08-25T07:45:49.479Z,48.82
2022-08-25T07:46:44.899Z,53.17
2022-08-25T07:47:44.876Z,49.79
2022-08-25T07:48:44.989Z,47.70
2022-08-25T07:49:45.833Z,52.21
2022-08-25T07:50:44.825Z,51.72
2022-08-25T07:52:04.463Z,48.02
2022-08-25T07:52:45.843Z,50.92
2022-08-25T07:54:17.686Z,47.70
2022-08-25T07:54:44.802Z,48.50
2022-08-25T07:55:45.118Z,51.72
2022-08-25T07:56:44.779Z,51.56
2022-08-25T07:57:44.774Z,51.24
2022-08-25T07:58:44.826Z,49.47
2022-08-25T07:59:44.799Z,49.63
2022-08-25T08:00:44.754Z,48.82
2022-08-25T08:01:44.847Z,51.88
2022-08-25T08:02:44.757Z,46.08
2022-08-25T08:03:50.541Z,48.82
2022-08-25T08:04:46.720Z,46.25
2022-08-25T08:05:44.710Z,51.88
2022-08-25T08:06:45.730Z,47.86
2022-08-25T08:07:44.701Z,46.08
2022-08-25T08:08:44.765Z,44.63
2022-08-25T08:09:44.679Z,53.82
2022-08-25T08:11:05.550Z,49.95
2022-08-25T08:11:53.672Z,51.56
2022-08-25T08:12:46.687Z,40.44
2022-08-25T08:13:44.664Z,48.18
2022-08-25T08:14:44.999Z,46.08
2022-08-25T08:15:44.670Z,44.47
2022-08-25T08:16:44.631Z,48.66
2022-08-25T08:17:44.646Z,51.56
2022-08-25T08:18:44.618Z,51.72
2022-08-25T08:19:45.342Z,51.08
2022-08-25T08:20:45.598Z,46.57
2022-08-25T08:21:44.608Z,49.31
2022-08-25T08:22:44.617Z,46.89
2022-08-25T08:23:44.597Z,49.95
2022-08-25T08:24:55.976Z,50.43
2022-08-25T08:25:45.564Z,43.02
2022-08-25T08:26:58.159Z,45.12
2022-08-25T08:27:46.579Z,39.96
2022-08-25T08:28:44.543Z,48.34
2022-08-25T08:29:45.545Z,49.31
2022-08-25T08:30:53.051Z,47.53
2022-08-25T08:31:48.671Z,49.47
2022-08-25T08:33:08.861Z,46.89
2022-08-25T08:33:46.517Z,48.02
2022-08-25T08:34:44.500Z,41.09
2022-08-25T08:35:44.494Z,46.89
2022-08-25T08:36:45.307Z,46.08
2022-08-25T08:37:44.528Z,44.15
2022-08-25T08:38:44.463Z,51.40
2022-08-25T08:39:44.465Z,42.06
2022-08-25T08:40:44.448Z,41.73
2022-08-25T08:42:12.123Z,52.53
2022-08-25T08:42:46.911Z,50.43
2022-08-25T08:43:44.440Z,43.02
2022-08-25T08:44:45.437Z,47.05
2022-08-25T08:45:44.414Z,48.02
2022-08-25T08:46:44.456Z,46.89
2022-08-25T08:47:44.449Z,48.50
2022-08-25T08:48:44.417Z,48.34
2022-08-25T08:49:44.391Z,51.40
2022-08-25T08:50:44.402Z,51.40
2022-08-25T08:51:44.377Z,44.31
2022-08-25T08:52:44.389Z,41.41
2022-08-25T08:53:44.363Z,40.61
2022-08-25T08:54:44.349Z,42.06
2022-08-25T08:55:44.350Z,43.83
2022-08-25T08:56:48.245Z,43.99
2022-08-25T08:57:44.384Z,48.98
2022-08-25T08:58:44.344Z,51.56
2022-08-25T08:59:44.320Z,45.76
2022-08-25T09:00:51.896Z,47.86
2022-08-25T09:01:45.327Z,47.86
2022-08-25T09:02:51.476Z,45.28
2022-08-25T09:03:45.295Z,49.15
2022-08-25T09:04:45.278Z,47.05
2022-08-25T09:05:46.792Z,46.73
2022-08-25T09:06:45.277Z,42.22
2022-08-25T09:07:44.285Z,42.38
2022-08-25T09:08:44.506Z,44.79
2022-08-25T09:09:44.246Z,43.83
2022-08-25T09:10:44.242Z,43.02
2022-08-25T09:11:44.231Z,49.15
2022-08-25T09:12:48.172Z,47.53
2022-08-25T09:13:44.226Z,45.12
2022-08-25T09:14:44.209Z,52.53
2022-08-25T09:15:44.216Z,42.54
2022-08-25T09:16:44.264Z,50.27
2022-08-25T09:17:44.234Z,48.98
2022-08-25T09:18:51.504Z,46.89
2022-08-25T09:19:45.172Z,49.79
2022-08-25T09:20:44.158Z,42.22
2022-08-25T09:21:44.148Z,44.63
2022-08-25T09:22:44.165Z,48.82
2022-08-25T09:23:44.137Z,42.38
2022-08-25T09:24:44.125Z,42.86
2022-08-25T09:25:53.245Z,43.02
2022-08-25T09:26:46.130Z,36.42
2022-08-25T09:27:44.130Z,37.54
2022-08-25T09:28:44.104Z,47.37
2022-08-25T09:29:44.093Z,46.25
2022-08-25T09:30:44.155Z,40.44
2022-08-25T09:31:44.128Z,45.60
2022-08-25T09:32:49.062Z,45.12
2022-08-25T09:33:45.081Z,47.70
2022-08-25T09:34:44.062Z,49.63
2022-08-25T09:35:44.044Z,41.57
2022-08-25T09:36:44.039Z,44.15
2022-08-25T09:37:44.056Z,43.67
2022-08-25T09:38:44.030Z,50.76
2022-08-25T09:39:44.020Z,46.73
2022-08-25T09:40:44.049Z,46.73
2022-08-25T09:41:44.011Z,48.50
2022-08-25T09:42:44.027Z,50.11
2022-08-25T09:43:43.992Z,44.79
2022-08-25T09:44:43.984Z,46.41
2022-08-25T09:45:43.979Z,46.25
2022-08-25T09:46:44.049Z,50.43
2022-08-25T09:47:44.019Z,42.38
2022-08-25T09:48:43.982Z,52.53
2022-08-25T09:49:43.949Z,49.15
2022-08-25T09:50:46.746Z,44.79
2022-08-25T09:51:44.932Z,43.51
2022-08-25T09:52:43.950Z,46.08
2022-08-25T09:53:43.913Z,41.57
2022-08-25T09:54:46.995Z,42.70
2022-08-25T09:55:45.760Z,49.31
2022-08-25T09:56:43.893Z,52.53
2022-08-25T09:57:43.932Z,44.31
2022-08-25T09:58:43.903Z,48.34
2022-08-25T09:59:55.667Z,51.88
2022-08-25T10:00:44.869Z,43.02
2022-08-25T10:01:43.869Z,52.69
2022-08-25T10:02:43.867Z,44.79
2022-08-25T10:03:43.839Z,49.95
2022-08-25T10:04:43.868Z,50.92
2022-08-25T10:05:43.838Z,48.82
2022-08-25T10:06:43.817Z,50.43
2022-08-25T10:07:43.865Z,44.31
2022-08-25T10:08:44.825Z,48.02
2022-08-25T10:09:43.789Z,49.95
2022-08-25T10:10:43.780Z,39.80
2022-08-25T10:11:43.777Z,44.96
2022-08-25T10:12:43.808Z,49.31
2022-08-25T10:13:43.763Z,49.31
2022-08-25T10:14:44.315Z,51.24
2022-08-25T10:15:43.776Z,50.27
2022-08-25T10:16:43.748Z,48.82
2022-08-25T10:17:43.738Z,45.60
2022-08-25T10:18:43.761Z,49.31
2022-08-25T10:19:43.718Z,41.73
2022-08-25T10:20:44.559Z,49.15
2022-08-25T10:21:43.741Z,48.34
2022-08-25T10:22:43.693Z,43.99
2022-08-25T10:23:43.750Z,49.31
2022-08-25T10:24:43.857Z,44.47
2022-08-25T10:25:43.675Z,45.60
2022-08-25T10:26:44.670Z,42.70
2022-08-25T10:27:43.678Z,44.47
2022-08-25T10:28:43.682Z,48.34
2022-08-25T10:29:43.646Z,45.76
2022-08-25T10:30:43.684Z,45.60
2022-08-25T10:31:43.631Z,49.47
2022-08-25T10:32:43.626Z,50.27
2022-08-25T10:33:43.643Z,47.21
2022-08-25T10:34:44.314Z,49.31
2022-08-25T10:35:43.609Z,49.79
2022-08-25T10:36:47.141Z,48.66
2022-08-25T10:37:43.591Z,43.67
2022-08-25T10:38:43.601Z,46.25
2022-08-25T10:39:43.580Z,52.37
2022-08-25T10:40:43.626Z,50.60
2022-08-25T10:41:43.558Z,42.70
2022-08-25T10:42:43.562Z,50.60
2022-08-25T10:43:43.571Z,52.53
2022-08-25T10:44:43.535Z,50.27
2022-08-25T10:45:43.722Z,47.05
2022-08-25T10:46:43.556Z,48.18
2022-08-25T10:47:43.512Z,45.76
2022-08-25T10:48:43.545Z,51.40
2022-08-25T10:49:43.504Z,49.47
2022-08-25T10:50:45.318Z,48.82
2022-08-25T10:51:43.487Z,53.66
2022-08-25T10:52:43.477Z,47.86
2022-08-25T10:53:43.495Z,48.18
2022-08-25T10:54:43.461Z,50.27
2022-08-25T10:55:43.453Z,47.86
2022-08-25T10:56:43.441Z,54.30
2022-08-25T10:57:43.445Z,50.27
2022-08-25T10:58:43.463Z,39.80
2022-08-25T10:59:43.419Z,43.02
2022-08-25T11:00:47.047Z,50.27
2022-08-25T11:01:44.586Z,46.08
2022-08-25T11:02:44.407Z,43.02
2022-08-25T11:03:43.421Z,53.50
2022-08-25T11:04:43.406Z,41.73
2022-08-25T11:05:43.462Z,51.56
2022-08-25T11:06:43.366Z,41.73
2022-08-25T11:07:43.363Z,48.34
2022-08-25T11:08:43.398Z,38.35
2022-08-25T11:09:43.369Z,48.66
2022-08-25T11:10:43.343Z,42.38
2022-08-25T11:11:43.333Z,44.15
2022-08-25T11:12:43.318Z,50.92
2022-08-25T11:13:43.355Z,47.21
2022-08-25T11:14:43.307Z,47.37
2022-08-25T11:15:54.801Z,42.70
2022-08-25T11:16:45.397Z,42.70
2022-08-25T11:17:43.291Z,51.40
2022-08-25T11:18:43.313Z,43.51
2022-08-25T11:19:44.010Z,46.73
2022-08-25T11:20:43.273Z,48.18
2022-08-25T11:21:43.252Z,41.57
2022-08-25T11:22:43.242Z,49.31
2022-08-25T11:23:43.272Z,51.40
2022-08-25T11:24:43.300Z,49.79
2022-08-25T11:25:43.230Z,54.30
2022-08-25T11:26:43.220Z,47.70
2022-08-25T11:27:43.211Z,51.72
2022-08-25T11:28:43.242Z,55.75
2022-08-25T11:29:43.193Z,52.05
2022-08-25T11:30:43.237Z,49.79
2022-08-25T11:31:43.183Z,43.18
2022-08-25T11:32:43.168Z,52.53
2022-08-25T11:33:43.199Z,47.05
2022-08-25T11:34:43.798Z,45.44
2022-08-25T11:35:43.157Z,48.18
2022-08-25T11:36:43.152Z,46.41
2022-08-25T11:37:43.139Z,47.53
2022-08-25T11:38:43.163Z,48.82
2022-08-25T11:39:43.120Z,46.89
2022-08-25T11:40:43.108Z,45.60
2022-08-25T11:41:43.116Z,48.50
2022-08-25T11:42:43.100Z,48.34
2022-08-25T11:43:43.123Z,42.54
2022-08-25T11:44:51.800Z,49.79
2022-08-25T11:45:44.089Z,51.24
2022-08-25T11:46:43.109Z,45.92
2022-08-25T11:47:43.064Z,49.79
2022-08-25T11:48:43.105Z,51.40
2022-08-25T11:49:43.068Z,48.50
2022-08-25T11:50:44.041Z,52.21
2022-08-25T11:51:43.036Z,45.12
2022-08-25T11:52:43.028Z,40.77
2022-08-25T11:53:43.034Z,45.92
2022-08-25T11:54:43.043Z,43.02
2022-08-25T11:55:43.006Z,49.79
2022-08-25T11:56:42.999Z,43.02
2022-08-25T11:57:42.999Z,44.47
2022-08-25T11:58:42.995Z,47.86
2022-08-25T11:59:43.015Z,51.24
2022-08-25T12:00:42.989Z,42.54
2022-08-25T12:01:42.962Z,50.43
2022-08-25T12:02:42.998Z,46.57
2022-08-25T12:03:42.950Z,50.76
2022-08-25T12:04:44.722Z,43.99
2022-08-25T12:05:42.976Z,43.67
2022-08-25T12:06:42.940Z,44.63
2022-08-25T12:07:42.917Z,42.54
2022-08-25T12:08:42.910Z,41.25
2022-08-25T12:09:42.955Z,43.83
2022-08-25T12:10:42.922Z,42.06
2022-08-25T12:11:42.895Z,43.99
2022-08-25T12:12:42.879Z,48.82
2022-08-25T12:13:42.874Z,39.64
2022-08-25T12:14:42.895Z,44.96
2022-08-25T12:15:42.878Z,46.41
2022-08-25T12:16:43.622Z,47.21
2022-08-25T12:17:42.849Z,51.08
2022-08-25T12:18:46.053Z,46.89
2022-08-25T12:19:42.868Z,47.70
2022-08-25T12:20:42.852Z,48.50
2022-08-25T12:21:42.825Z,52.53
2022-08-25T12:22:42.816Z,49.63
2022-08-25T12:23:45.167Z,39.32
2022-08-25T12:24:48.081Z,50.92
2022-08-25T12:25:43.790Z,52.21
2022-08-25T12:26:42.797Z,46.41
2022-08-25T12:27:42.776Z,44.31
2022-08-25T12:28:42.779Z,43.34
2022-08-25T12:29:42.798Z,47.53
2022-08-25T12:30:42.792Z,42.70
2022-08-25T12:31:42.777Z,34.16
2022-08-25T12:32:42.769Z,50.92
2022-08-25T12:33:42.737Z,45.44
2022-08-25T12:34:42.762Z,49.47
2022-08-25T12:35:42.729Z,53.01
2022-08-25T12:36:42.710Z,47.86
2022-08-25T12:37:42.704Z,50.60
2022-08-25T12:38:44.194Z,52.53
2022-08-25T12:39:43.724Z,47.86
2022-08-25T12:40:42.692Z,44.47
2022-08-25T12:41:42.685Z,35.13
2022-08-25T12:42:42.668Z,48.50
2022-08-25T12:43:42.666Z,53.50
2022-08-25T12:44:42.698Z,46.57
2022-08-25T12:45:42.727Z,46.41
2022-08-25T12:46:42.652Z,46.25
2022-08-25T12:47:44.703Z,50.43
2022-08-25T12:48:43.644Z,51.40
2022-08-25T12:49:42.678Z,52.53
2022-08-25T12:50:43.207Z,51.08
2022-08-25T12:51:42.605Z,53.17
2022-08-25T12:52:43.605Z,51.56